Nearby METAR Reports

 

ENRY - Rygge (nor-Afb), Norway
Distance from station: 0 24km
Updated: 10/12/2018 05:20
Partly cloudy
Partly cloudy
 Wind from WNW
Wind: WNW 19 km/h
Temperature: 3°C
Wind Chill: -2°C
Dew Point: -4°C
Humidity: 60%
Barometer: 994 hPa
Clouds: Partly cloudy
Visibility: 16 miles
Cloud details: Few Clouds 2377 m
Partly cloudy 3048 m
2018/12/10 04:20 ENRY 100420Z AUTO 30010KT 9999NDV FEW078/// SCT100/// 03/M04 Q0994
ENTO - Torp (civ/Nor-Af, Norway
Distance from station: W 29km
Updated: 10/12/2018 05:20
Mostly cloudy
Mostly cloudy
 Wind from WNW
Wind: WNW 15 km/h
Temperature: 2°C
Wind Chill: -2°C
Dew Point: -4°C
Humidity: 65%
Barometer: 995 hPa
Clouds: Mostly cloudy
Visibility: 10 km
Cloud details: Mostly cloudy 3962 m
2018/12/10 04:20 ENTO 100420Z AUTO 29008KT 9999 BKN130/// 02/M04 Q0995
 
ENSN - Skien/Geiterygge, Norway
Distance from station: W 68km
Updated: 09/11/2015 09:50
NOT Current
Clear
Clear
 Wind from SSW
Wind: SSW 19 km/h, Gust: 41 km/h
Temperature: 7°C
Wind Chill: 4°C
Dew Point: 3°C
Humidity: 76%
Barometer: 1000 hPa
Summary: Clear
Visibility: greater than 10 km
2015/11/09 08:50 ENSN 090850Z 20010G22KT 150V240 CAVOK 07/03 Q1000